Aviation Digital Data Service (ADDS)

Output produced by METARs form (1419 UTC 19 April 2019)
found at http://www.aviationweather.gov/metar/data/
 
Forecast for: DNMA (MAIDUGURI , NG)
Text: TAF DNMA 190950Z 1912/2018 05010KT 8000 NSC
Forecast period: 1200 UTC 19 April 2019 to 1800 UTC 20 April 2019
Forecast type: FROM: standard forecast or significant change
Winds: from the NE (50 degrees) at 12 MPH (10 knots; 5.1 m/s)
Visibility: 5 miles (8 km)
Ceiling: unknown
Clouds: missing
Weather: no significant weather forecast for this period